Alaskan Navigator — WDC6644 — position and weather

sailwx.info

Track history (hours):
 
Tides and Currents Weather Stations Pressure Air Temp Water Temp Dewpoint Dewpoint Depression Visibility Wind Speed Wind Dir Waves Ship Positions

Alaskan Navigator

Owner: ALASKA TANKER COMPANY, LLC, Beaverton, OR. More information available from US FCC via Universal Licensing System and Coast Guard Vessel Documentation Center.

Last reported at 2017-Dec-18 18:00 UTC. Time now 2017-Dec-18 20:38 UTC.
Position N 40°36' W 127°12'.

Type: Ship. MMSI: 367688000.

Wind from 020 at 6 knots

Barometer 1025.1 mb
Air temperature 11.1 ° C
Visibility: greater than 10.8 NM
Dewpoint 10.1 ° C
Water temperature 15.0 ° C

Date/timePositionNaut miles runAvg speedWind from/ knotsBaromVisibWave heightAir tempDewpointWater temp
2017-Dec-18 18:00N 40°36' W 127°12'4314.2 020 / 61025.110.8 11.110.115.0
2017-Dec-18 15:00N 40°00' W 126°42'3517.6 020 / 151023.510.8 12.211.315.0
2017-Dec-18 13:00N 39°30' W 126°18'2311.4 350 / 231022.210.8 11.110.115.0
2017-Dec-18 11:00N 39°12' W 126°00'4114.0 020 / 231021.610.8 11.7 9.515.0
2017-Dec-18 08:05N 38°37' W 125°34'113.9
2017-Dec-18 07:59N 38°35' W 125°33'713.6
2017-Dec-18 07:29N 38°30' W 125°29'1713.5
2017-Dec-18 06:15N 38°16' W 125°17'1213.5
2017-Dec-18 05:23N 38°06' W 125°09'3414.3
2017-Dec-18 03:00N 37°36' W 124°48'310.0 360 / 281018.6 12.8 9.515.0
2017-Dec-18 02:42N 37°36' W 124°44'313.1
2017-Dec-18 02:30N 37°34' W 124°42'1121.5
2017-Dec-18 02:00N 37°24' W 124°36'2 7.7 360 / 281017.110.8 12.8 9.515.0
2017-Dec-18 01:47N 37°26' W 124°36'3713.3
2017-Dec-17 23:00N 36°54' W 124°12'127.7 020 / 191017.110.8 13.3 9.015.0
2017-Dec-17 22:57N 36°55' W 124°11'612.8
2017-Dec-17 22:29N 36°50' W 124°07'613.2
2017-Dec-17 22:00N 36°45' W 124°03'4712.6
2017-Dec-17 18:15N 36°05' W 123°30'312.0
2017-Dec-17 18:00N 36°03' W 123°28'4298.3
2017-Dec-17 18:00N 36°00' W 123°24'3 4.6 360 / 171017.010.8 13.910.716.1
2017-Dec-17 17:25N 35°58' W 123°22'510.8
2017-Dec-17 17:00N 35°54' W 123°18'5 9.2
2017-Dec-17 16:30N 35°50' W 123°16'4 7.2
2017-Dec-17 16:00N 35°47' W 123°16'2110.4
2017-Dec-17 14:00N 35°30' W 123°00'6 6.0 360 / 241014.510.8 13.311.215.6
2017-Dec-17 13:00N 35°24' W 123°00'9 5.3 360 / 241013.410.8 13.311.215.6
2017-Dec-17 11:18N 35°20' W 122°50'3 7.1
2017-Dec-17 10:50N 35°18' W 122°47'3 6.8
2017-Dec-17 10:20N 35°15' W 122°44'3 7.0
2017-Dec-17 09:50N 35°13' W 122°41'2 6.7
2017-Dec-17 09:30N 35°11' W 122°39'3 6.7
2017-Dec-17 09:00N 35°09' W 122°36'4 6.5
2017-Dec-17 08:24N 35°06' W 122°33'3 6.7
2017-Dec-17 08:01N 35°05' W 122°31'3 6.3
2017-Dec-17 07:30N 35°02' W 122°28'3 6.0
2017-Dec-17 07:00N 35°00' W 122°25'3 5.8
2017-Dec-17 06:30N 34°58' W 122°23'3 6.0
2017-Dec-17 06:00N 34°56' W 122°20'3 6.3
2017-Dec-17 05:30N 34°54' W 122°17'3 6.5
2017-Dec-17 05:00N 34°52' W 122°14'3 6.0
2017-Dec-17 04:30N 34°50' W 122°12'3 5.9
2017-Dec-17 04:00N 34°48' W 122°09'3 5.4
2017-Dec-17 03:30N 34°46' W 122°07'3 5.1
2017-Dec-17 03:00N 34°44' W 122°04'4282.7
2017-Dec-17 03:00N 34°42' W 122°00'2 3.3 360 / 351010.710.8 13.910.715.6
2017-Dec-17 02:30N 34°42' W 122°02'917.2
2017-Dec-17 02:00N 34°36' W 121°54'61236.7 360 / 351010.010.8 14.4 9.215.6
2017-Dec-17 01:59N 34°40' W 121°60'3 5.8
2017-Dec-17 01:30N 34°38' W 121°57'3 6.3
2017-Dec-17 01:00N 34°36' W 121°54'3 6.2
2017-Dec-17 00:30N 34°34' W 121°52'3 6.4
2017-Dec-17 00:00N 34°32' W 121°49'4 7.4
2017-Dec-16 23:30N 34°29' W 121°46'4 7.8
2017-Dec-16 23:00N 34°27' W 121°42'3174.2
2017-Dec-16 23:00N 34°24' W 121°42'3 5.5 360 / 351009.010.8 14.4 9.215.6
2017-Dec-16 22:30N 34°24' W 121°39'4 7.2
2017-Dec-16 22:00N 34°21' W 121°36'4 7.4
2017-Dec-16 21:30N 34°19' W 121°32'4 8.6
2017-Dec-16 21:00N 34°16' W 121°28'5 9.1
2017-Dec-16 20:30N 34°13' W 121°24'5 9.4
2017-Dec-16 20:00N 34°10' W 121°20'5 9.4
2017-Dec-16 19:30N 34°06' W 121°16'5 9.6
2017-Dec-16 19:00N 34°03' W 121°12'5 9.5
2017-Dec-16 18:30N 33°60' W 121°08'510.0
2017-Dec-16 18:00N 33°56' W 121°04'3207.8
2017-Dec-16 18:00N 33°54' W 121°06'611.4 360 / 301009.3 14.412.416.1
2017-Dec-16 17:30N 33°53' W 120°59'510.1
2017-Dec-16 17:00N 33°50' W 120°55'5 9.5
2017-Dec-16 16:30N 33°46' W 120°51'4 7.4
2017-Dec-16 16:00N 33°44' W 120°47'4 7.4
2017-Dec-16 15:30N 33°42' W 120°44'4 8.9
2017-Dec-16 15:00N 33°42' W 120°38'4 8.7
2017-Dec-16 14:30N 33°42' W 120°33'4 8.9
2017-Dec-16 14:00N 33°42' W 120°28'7731.9
2017-Dec-16 14:00N 33°36' W 120°24'611.0 320 / 321006.910.8 13.312.416.1
2017-Dec-16 13:25N 33°42' W 120°21'1022.4
2017-Dec-16 13:00N 33°36' W 120°12'7175.7 320 / 321006.910.8 13.312.416.1
2017-Dec-16 12:57N 33°42' W 120°16'5 9.2
2017-Dec-16 12:24N 33°42' W 120°10'7 8.9
2017-Dec-16 11:39N 33°42' W 120°02'1 9.2
2017-Dec-16 11:30N 33°42' W 120°00'5 9.8
2017-Dec-16 11:00N 33°42' W 119°54'5 9.4
2017-Dec-16 10:30N 33°42' W 119°49'510.0
2017-Dec-16 10:00N 33°42' W 119°43'510.5
2017-Dec-16 09:30N 33°42' W 119°36'510.5
2017-Dec-16 09:00N 33°42' W 119°30'510.6
2017-Dec-16 08:30N 33°42' W 119°24'510.7
2017-Dec-16 08:00N 33°42' W 119°17'611.1
2017-Dec-16 07:28N 33°41' W 119°10'511.4
2017-Dec-16 07:00N 33°41' W 119°04'611.3
2017-Dec-16 06:30N 33°41' W 118°57'611.4
2017-Dec-16 06:00N 33°40' W 118°50'611.7
2017-Dec-16 05:30N 33°40' W 118°43'611.4
2017-Dec-16 05:00N 33°39' W 118°36'611.4
2017-Dec-16 04:30N 33°39' W 118°29'611.5
2017-Dec-16 04:00N 33°38' W 118°23'611.8
2017-Dec-16 03:30N 33°38' W 118°15'510.2
2017-Dec-16 03:00N 33°42' W 118°11'2 4.2
2017-Dec-16 02:30N 33°44' W 118°13'0 0.2
2017-Dec-16 02:00N 33°44' W 118°13'0 0.1
2017-Dec-16 01:27N 33°44' W 118°13'0 0.1
2017-Dec-16 00:57N 33°44' W 118°13'0 0.0
2017-Dec-16 00:21N 33°44' W 118°13'0 0.0
2017-Dec-15 23:57N 33°44' W 118°13'0 0.0
2017-Dec-15 23:27N 33°44' W 118°13'0 0.1
2017-Dec-15 20:57N 33°44' W 118°13'0 0.3
2017-Dec-15 20:27N 33°44' W 118°13'0 0.3
2017-Dec-15 19:57N 33°44' W 118°13'0 0.1
2017-Dec-15 19:27N 33°44' W 118°13'0 0.0
2017-Dec-15 18:57N 33°44' W 118°13'0 0.1
2017-Dec-15 18:27N 33°44' W 118°13'0 0.0
2017-Dec-15 17:03N 33°44' W 118°13'0 0.5
2017-Dec-15 16:57N 33°44' W 118°13'0 0.1
2017-Dec-15 16:21N 33°44' W 118°13'0 0.0
2017-Dec-15 15:57N 33°44' W 118°13'0 0.1
2017-Dec-15 15:15N 33°44' W 118°13'0 0.2
2017-Dec-15 14:57N 33°44' W 118°13'0 0.0
2017-Dec-15 14:27N 33°44' W 118°13'0 0.1
2017-Dec-15 13:57N 33°44' W 118°13'0 0.1
2017-Dec-15 13:28N 33°44' W 118°13'0 0.2
2017-Dec-15 12:57N 33°44' W 118°13'0 0.0
2017-Dec-15 08:57N 33°44' W 118°13'0 0.0
2017-Dec-15 08:09N 33°44' W 118°13'0 0.2
2017-Dec-15 07:57N 33°44' W 118°13'0 0.0
2017-Dec-15 06:51N 33°44' W 118°13'0 0.0
2017-Dec-15 06:27N 33°44' W 118°13'0 0.1
2017-Dec-15 05:45N 33°44' W 118°13'0 0.2
2017-Dec-15 05:27N 33°44' W 118°13'0 0.1
2017-Dec-15 04:57N 33°44' W 118°13'0 0.1
2017-Dec-15 04:30N 33°44' W 118°13'0 0.1
2017-Dec-15 03:45N 33°44' W 118°13'0 0.1
2017-Dec-15 02:15N 33°44' W 118°13'0 0.2
2017-Dec-15 01:00N 33°44' W 118°13'1 0.0
2017-Dec-13 07:51N 33°45' W 118°13'0 0.7
2017-Dec-13 07:29N 33°45' W 118°13'1 3.0
2017-Dec-13 07:01N 33°44' W 118°12'3 5.1
2017-Dec-13 06:30N 33°42' W 118°11'4 8.1
2017-Dec-13 06:00N 33°37' W 118°11'510.4
2017-Dec-13 05:30N 33°36' W 118°17'611.3
2017-Dec-13 05:00N 33°36' W 118°24'611.8
2017-Dec-13 04:30N 33°36' W 118°31'611.9
2017-Dec-13 04:00N 33°36' W 118°38'612.0
2017-Dec-13 03:30N 33°37' W 118°46'611.9
2017-Dec-13 03:00N 33°37' W 118°53'611.8
2017-Dec-13 02:30N 33°38' W 118°60'612.0
2017-Dec-13 02:00N 33°38' W 119°07'715.1
2017-Dec-13 01:30N 33°38' W 119°16'714.9
2017-Dec-13 01:00N 33°38' W 119°25'815.3
2017-Dec-13 00:30N 33°38' W 119°34'815.2
2017-Dec-12 23:59N 33°37' W 119°43'715.2
2017-Dec-12 23:30N 33°37' W 119°52'814.9
2017-Dec-12 23:00N 33°36' W 120°01'815.0
2017-Dec-12 22:30N 33°36' W 120°10'510.2
2017-Dec-12 21:59N 33°36' W 120°17'5 8.0
2017-Dec-12 21:25N 33°41' W 120°18'511.0
2017-Dec-12 20:59N 33°46' W 120°18'612.2
2017-Dec-12 20:30N 33°48' W 120°24'714.3
2017-Dec-12 20:00N 33°51' W 120°32'714.5
2017-Dec-12 19:30N 33°55' W 120°40'714.5
2017-Dec-12 19:00N 33°58' W 120°48'714.4
2017-Dec-12 18:30N 34°01' W 120°55'714.5
2017-Dec-12 18:00N 34°04' W 121°04'52589.4
2017-Dec-12 18:00N 34°00' W 121°00'1224.0 360 / 101023.510.8 16.110.916.7
2017-Dec-12 17:30N 34°07' W 121°11'714.3
2017-Dec-12 17:00N 34°10' W 121°19'714.2
2017-Dec-12 16:30N 34°13' W 121°27'714.2
2017-Dec-12 16:00N 34°18' W 121°33'714.0
2017-Dec-12 15:30N 34°23' W 121°39'714.1
2017-Dec-12 15:00N 34°28' W 121°45'714.3
2017-Dec-12 14:30N 34°33' W 121°51'714.5
2017-Dec-12 14:00N 34°38' W 121°58'4313.5
2017-Dec-12 14:00N 34°42' W 122°00'4 7.4 320 / 111023.910.8 13.912.815.0
2017-Dec-12 13:31N 34°43' W 122°04'814.9
2017-Dec-12 13:00N 34°49' W 122°11'714.9
2017-Dec-12 12:30N 34°54' W 122°17'715.0
2017-Dec-12 12:01N 34°59' W 122°24'815.1
2017-Dec-12 11:31N 35°04' W 122°30'714.9
2017-Dec-12 11:00N 35°09' W 122°37'815.2
2017-Dec-12 10:31N 35°15' W 122°44'815.1
2017-Dec-12 10:00N 35°20' W 122°50'714.8
2017-Dec-12 09:30N 35°25' W 122°57'715.1
2017-Dec-12 09:01N 35°30' W 123°03'815.2
2017-Dec-12 08:30N 35°37' W 123°09'815.2
2017-Dec-12 08:00N 35°43' W 123°14'815.2
2017-Dec-12 07:30N 35°50' W 123°19'815.3
2017-Dec-12 07:00N 35°56' W 123°24'715.1
2017-Dec-12 06:31N 36°02' W 123°29'815.0
2017-Dec-12 06:00N 36°09' W 123°34'463285.9
2017-Dec-12 06:00N 36°06' W 124°30'4287.2 320 / 101026.5 0.0 13.313.316.7
2017-Dec-12 05:30N 36°15' W 123°39'714.9
2017-Dec-12 05:01N 36°21' W 123°44'714.8
2017-Dec-12 04:30N 36°28' W 123°49'714.7
2017-Dec-12 04:00N 36°34' W 123°54'714.7
2017-Dec-12 03:30N 36°40' W 123°59'714.6
2017-Dec-12 03:00N 36°46' W 124°04'714.7
2017-Dec-12 02:30N 36°52' W 124°09'714.7
2017-Dec-12 02:01N 36°58' W 124°13'7431.7
2017-Dec-12 02:00N 36°54' W 124°06'1429.6 320 / 71026.0 0.0 11.111.115.0
2017-Dec-12 01:30N 37°04' W 124°18'714.6
2017-Dec-12 01:00N 37°11' W 124°24'714.6
2017-Dec-12 00:30N 37°17' W 124°28'713.6
2017-Dec-12 00:00N 37°22' W 124°33'612.6
2017-Dec-11 23:30N 37°28' W 124°37'2 4.8
2017-Dec-11 23:00N 37°30' W 124°36'777.5 1025.0 0.1 11.111.115.0
2017-Dec-11 22:54N 37°34' W 124°43'513.5
2017-Dec-11 22:30N 37°39' W 124°47'714.1
2017-Dec-11 22:01N 37°45' W 124°51'714.4
2017-Dec-11 21:31N 37°51' W 124°56'714.2
2017-Dec-11 21:00N 37°57' W 125°01'714.2
2017-Dec-11 20:31N 38°03' W 125°06'714.4
2017-Dec-11 20:01N 38°09' W 125°11'714.8
2017-Dec-11 19:31N 38°15' W 125°16'714.8
2017-Dec-11 19:01N 38°21' W 125°21'714.7
2017-Dec-11 18:31N 38°27' W 125°26'815.2
2017-Dec-11 18:01N 38°34' W 125°32'11675.7
2017-Dec-11 18:00N 38°24' W 125°24'1939.2 140 / 131025.210.8 15.011.915.3
2017-Dec-11 17:31N 38°40' W 125°37'714.9
2017-Dec-11 17:00N 38°46' W 125°42'2423.8
2017-Dec-11 16:00N 39°06' W 126°00'9 6.9 130 / 171023.010.8 13.910.713.9
2017-Dec-11 14:42N 39°14' W 126°05'414.2
2017-Dec-11 14:25N 39°18' W 126°08'717.3
2017-Dec-11 14:00N 39°24' W 126°12'1 6.9 130 / 171021.710.8 13.311.213.9
2017-Dec-11 13:51N 39°24' W 126°13'514.1
2017-Dec-11 13:30N 39°28' W 126°17'714.4
2017-Dec-11 13:00N 39°35' W 126°22'1014.5
2017-Dec-11 12:18N 39°43' W 126°29'814.1
2017-Dec-11 11:42N 39°50' W 126°35'314.1
2017-Dec-11 11:28N 39°53' W 126°37'2 3.2
2017-Dec-11 11:00N 39°54' W 126°36'1921.2 140 / 171021.710.8 12.811.713.9
2017-Dec-11 10:06N 40°09' W 126°51'314.4
2017-Dec-11 09:55N 40°11' W 126°53'914.3
2017-Dec-11 09:17N 40°19' W 126°59'514.1
2017-Dec-11 08:57N 40°23' W 127°03'2313.9
2017-Dec-11 07:18N 40°42' W 127°19'414.3
2017-Dec-11 07:00N 40°46' W 127°22'714.5
2017-Dec-11 06:30N 40°52' W 127°27'714.2
2017-Dec-11 06:00N 40°58' W 127°32'4277.3
2017-Dec-11 06:00N 40°54' W 127°30'1122.8 140 / 121021.210.8 13.313.314.2
2017-Dec-11 05:30N 41°03' W 127°38'714.0
2017-Dec-11 05:00N 41°09' W 127°43'714.4
2017-Dec-11 04:31N 41°15' W 127°49'814.6
2017-Dec-11 03:58N 41°21' W 127°55'1013.7
2017-Dec-11 03:14N 41°30' W 128°02'313.9
2017-Dec-11 02:59N 41°33' W 128°03'814.1
2017-Dec-11 02:24N 41°40' W 128°09'514.3
2017-Dec-11 02:00N 41°45' W 128°13'3713.7
2017-Dec-10 23:21N 42°16' W 128°40'512.9
2017-Dec-10 23:00N 42°12' W 128°36'1634.7 160 / 141020.610.8 15.6 9.014.4
2017-Dec-10 22:32N 42°25' W 128°48'013.5
2017-Dec-10 22:30N 42°25' W 128°48'2213.9
2017-Dec-10 20:54N 42°44' W 129°05'614.1
2017-Dec-10 20:27N 42°50' W 129°10'614.1
2017-Dec-10 20:00N 42°55' W 129°15'1013.7
2017-Dec-10 19:15N 43°04' W 129°22'513.8
2017-Dec-10 18:51N 43°08' W 129°26'514.0
2017-Dec-10 18:30N 43°12' W 129°30'714.1
2017-Dec-10 18:00N 43°18' W 129°35'713.9
2017-Dec-10 17:30N 43°24' W 129°40'713.4
2017-Dec-10 17:00N 43°30' W 129°45'713.7
2017-Dec-10 16:30N 43°35' W 129°50'2213.9
2017-Dec-10 14:56N 43°54' W 130°06'4912.5
2017-Dec-10 11:00N 44°36' W 130°42'7114.2 170 / 251020.8 0.3 13.312.413.9
2017-Dec-10 06:00N 45°36' W 131°36'3913.0 180 / 121021.710.8 12.211.311.5
2017-Dec-10 03:00N 46°06' W 132°12'20 9.9 170 / 151019.510.8 11.710.511.7
2017-Dec-10 01:00N 46°24' W 132°24'2914.6 180 / 141018.810.8 11.7 9.511.7
2017-Dec-09 23:00N 46°48' W 132°48'7214.5 180 / 141015.910.8 11.110.111.7
2017-Dec-09 18:00N 47°48' W 133°48'4816.1 180 / 181011.5 5.4 11.111.111.1
2017-Dec-09 15:00N 48°30' W 134°24'4343.1 180 / 251008.1 5.4 11.110.111.1
2017-Dec-09 14:00N 49°06' W 135°00'0 0.0 170 / 251005.2 5.4 11.710.511.1
2017-Dec-09 11:00N 49°06' W 135°00'6412.9 170 / 351002.6 5.4 11.710.611.1
2017-Dec-09 06:00N 50°00' W 135°54'3611.9 180 / 191006.1 5.4 9.4 8.4 9.4
2017-Dec-09 03:00N 50°30' W 136°24'2828.4 180 / 201003.4 5.4 9.4 9.4 9.4
2017-Dec-09 02:00N 50°54' W 136°48'73 9.1 150 / 241004.3 2.2 9.4 9.4 9.4
2017-Dec-08 18:00N 51°54' W 137°54'   170 / 321006.2 2.2 9.4 9.4 9.4
Track history (hours):
 
Tides and Currents Weather Stations Pressure Air Temp Water Temp Dewpoint Dewpoint Depression Visibility Wind Speed Wind Dir Waves Ship Positions

Alaskan Navigator

Owner: ALASKA TANKER COMPANY, LLC, Beaverton, OR. More information available from US FCC via Universal Licensing System and Coast Guard Vessel Documentation Center.

Last reported at 2017-Dec-18 18:00 UTC. Time now 2017-Dec-18 20:38 UTC.
Position N 40°36' W 127°12'.

Type: Ship. MMSI: 367688000.

Wind from 020 at 6 knots

Barometer 1025.1 mb
Air temperature 11.1 ° C
Visibility: greater than 10.8 NM
Dewpoint 10.1 ° C
Water temperature 15.0 ° C

Date/timePositionNaut miles runAvg speedWind from/ knotsBaromVisibWave heightAir tempDewpointWater temp
2017-Dec-18 18:00N 40°36' W 127°12'4314.2 020 / 61025.110.8 11.110.115.0
2017-Dec-18 15:00N 40°00' W 126°42'3517.6 020 / 151023.510.8 12.211.315.0
2017-Dec-18 13:00N 39°30' W 126°18'2311.4 350 / 231022.210.8 11.110.115.0
2017-Dec-18 11:00N 39°12' W 126°00'4114.0 020 / 231021.610.8 11.7 9.515.0
2017-Dec-18 08:05N 38°37' W 125°34'113.9
2017-Dec-18 07:59N 38°35' W 125°33'713.6
2017-Dec-18 07:29N 38°30' W 125°29'1713.5
2017-Dec-18 06:15N 38°16' W 125°17'1213.5
2017-Dec-18 05:23N 38°06' W 125°09'3414.3
2017-Dec-18 03:00N 37°36' W 124°48'310.0 360 / 281018.6 12.8 9.515.0
2017-Dec-18 02:42N 37°36' W 124°44'313.1
2017-Dec-18 02:30N 37°34' W 124°42'1121.5
2017-Dec-18 02:00N 37°24' W 124°36'2 7.7 360 / 281017.110.8 12.8 9.515.0
2017-Dec-18 01:47N 37°26' W 124°36'3713.3
2017-Dec-17 23:00N 36°54' W 124°12'127.7 020 / 191017.110.8 13.3 9.015.0
2017-Dec-17 22:57N 36°55' W 124°11'612.8
2017-Dec-17 22:29N 36°50' W 124°07'613.2
2017-Dec-17 22:00N 36°45' W 124°03'4712.6
2017-Dec-17 18:15N 36°05' W 123°30'312.0
2017-Dec-17 18:00N 36°03' W 123°28'4298.3
2017-Dec-17 18:00N 36°00' W 123°24'3 4.6 360 / 171017.010.8 13.910.716.1
2017-Dec-17 17:25N 35°58' W 123°22'510.8
2017-Dec-17 17:00N 35°54' W 123°18'5 9.2
2017-Dec-17 16:30N 35°50' W 123°16'4 7.2
2017-Dec-17 16:00N 35°47' W 123°16'2110.4
2017-Dec-17 14:00N 35°30' W 123°00'6 6.0 360 / 241014.510.8 13.311.215.6
2017-Dec-17 13:00N 35°24' W 123°00'9 5.3 360 / 241013.410.8 13.311.215.6
2017-Dec-17 11:18N 35°20' W 122°50'3 7.1
2017-Dec-17 10:50N 35°18' W 122°47'3 6.8
2017-Dec-17 10:20N 35°15' W 122°44'3 7.0
2017-Dec-17 09:50N 35°13' W 122°41'2 6.7
2017-Dec-17 09:30N 35°11' W 122°39'3 6.7
2017-Dec-17 09:00N 35°09' W 122°36'4 6.5
2017-Dec-17 08:24N 35°06' W 122°33'3 6.7
2017-Dec-17 08:01N 35°05' W 122°31'3 6.3
2017-Dec-17 07:30N 35°02' W 122°28'3 6.0
2017-Dec-17 07:00N 35°00' W 122°25'3 5.8
2017-Dec-17 06:30N 34°58' W 122°23'3 6.0
2017-Dec-17 06:00N 34°56' W 122°20'3 6.3
2017-Dec-17 05:30N 34°54' W 122°17'3 6.5
2017-Dec-17 05:00N 34°52' W 122°14'3 6.0
2017-Dec-17 04:30N 34°50' W 122°12'3 5.9
2017-Dec-17 04:00N 34°48' W 122°09'3 5.4
2017-Dec-17 03:30N 34°46' W 122°07'3 5.1
2017-Dec-17 03:00N 34°44' W 122°04'4282.7
2017-Dec-17 03:00N 34°42' W 122°00'2 3.3 360 / 351010.710.8 13.910.715.6
2017-Dec-17 02:30N 34°42' W 122°02'917.2
2017-Dec-17 02:00N 34°36' W 121°54'61236.7 360 / 351010.010.8 14.4 9.215.6
2017-Dec-17 01:59N 34°40' W 121°60'3 5.8
2017-Dec-17 01:30N 34°38' W 121°57'3 6.3
2017-Dec-17 01:00N 34°36' W 121°54'3 6.2
2017-Dec-17 00:30N 34°34' W 121°52'3 6.4
2017-Dec-17 00:00N 34°32' W 121°49'4 7.4
2017-Dec-16 23:30N 34°29' W 121°46'4 7.8
2017-Dec-16 23:00N 34°27' W 121°42'3174.2
2017-Dec-16 23:00N 34°24' W 121°42'3 5.5 360 / 351009.010.8 14.4 9.215.6
2017-Dec-16 22:30N 34°24' W 121°39'4 7.2
2017-Dec-16 22:00N 34°21' W 121°36'4 7.4
2017-Dec-16 21:30N 34°19' W 121°32'4 8.6
2017-Dec-16 21:00N 34°16' W 121°28'5 9.1
2017-Dec-16 20:30N 34°13' W 121°24'5 9.4
2017-Dec-16 20:00N 34°10' W 121°20'5 9.4
2017-Dec-16 19:30N 34°06' W 121°16'5 9.6
2017-Dec-16 19:00N 34°03' W 121°12'5 9.5
2017-Dec-16 18:30N 33°60' W 121°08'510.0
2017-Dec-16 18:00N 33°56' W 121°04'3207.8
2017-Dec-16 18:00N 33°54' W 121°06'611.4 360 / 301009.3 14.412.416.1
2017-Dec-16 17:30N 33°53' W 120°59'510.1
2017-Dec-16 17:00N 33°50' W 120°55'5 9.5
2017-Dec-16 16:30N 33°46' W 120°51'4 7.4
2017-Dec-16 16:00N 33°44' W 120°47'4 7.4
2017-Dec-16 15:30N 33°42' W 120°44'4 8.9
2017-Dec-16 15:00N 33°42' W 120°38'4 8.7
2017-Dec-16 14:30N 33°42' W 120°33'4 8.9
2017-Dec-16 14:00N 33°42' W 120°28'7731.9
2017-Dec-16 14:00N 33°36' W 120°24'611.0 320 / 321006.910.8 13.312.416.1
2017-Dec-16 13:25N 33°42' W 120°21'1022.4
2017-Dec-16 13:00N 33°36' W 120°12'7175.7 320 / 321006.910.8 13.312.416.1
2017-Dec-16 12:57N 33°42' W 120°16'5 9.2
2017-Dec-16 12:24N 33°42' W 120°10'7 8.9
2017-Dec-16 11:39N 33°42' W 120°02'1 9.2
2017-Dec-16 11:30N 33°42' W 120°00'5 9.8
2017-Dec-16 11:00N 33°42' W 119°54'5 9.4
2017-Dec-16 10:30N 33°42' W 119°49'510.0
2017-Dec-16 10:00N 33°42' W 119°43'510.5
2017-Dec-16 09:30N 33°42' W 119°36'510.5
2017-Dec-16 09:00N 33°42' W 119°30'510.6
2017-Dec-16 08:30N 33°42' W 119°24'510.7
2017-Dec-16 08:00N 33°42' W 119°17'611.1
2017-Dec-16 07:28N 33°41' W 119°10'511.4
2017-Dec-16 07:00N 33°41' W 119°04'611.3
2017-Dec-16 06:30N 33°41' W 118°57'611.4
2017-Dec-16 06:00N 33°40' W 118°50'611.7
2017-Dec-16 05:30N 33°40' W 118°43'611.4
2017-Dec-16 05:00N 33°39' W 118°36'611.4
2017-Dec-16 04:30N 33°39' W 118°29'611.5
2017-Dec-16 04:00N 33°38' W 118°23'611.8
2017-Dec-16 03:30N 33°38' W 118°15'510.2
2017-Dec-16 03:00N 33°42' W 118°11'2 4.2
2017-Dec-16 02:30N 33°44' W 118°13'0 0.2
2017-Dec-16 02:00N 33°44' W 118°13'0 0.1
2017-Dec-16 01:27N 33°44' W 118°13'0 0.1
2017-Dec-16 00:57N 33°44' W 118°13'0 0.0
2017-Dec-16 00:21N 33°44' W 118°13'0 0.0
2017-Dec-15 23:57N 33°44' W 118°13'0 0.0
2017-Dec-15 23:27N 33°44' W 118°13'0 0.1
2017-Dec-15 20:57N 33°44' W 118°13'0 0.3
2017-Dec-15 20:27N 33°44' W 118°13'0 0.3
2017-Dec-15 19:57N 33°44' W 118°13'0 0.1
2017-Dec-15 19:27N 33°44' W 118°13'0 0.0
2017-Dec-15 18:57N 33°44' W 118°13'0 0.1
2017-Dec-15 18:27N 33°44' W 118°13'0 0.0
2017-Dec-15 17:03N 33°44' W 118°13'0 0.5
2017-Dec-15 16:57N 33°44' W 118°13'0 0.1
2017-Dec-15 16:21N 33°44' W 118°13'0 0.0
2017-Dec-15 15:57N 33°44' W 118°13'0 0.1
2017-Dec-15 15:15N 33°44' W 118°13'0 0.2
2017-Dec-15 14:57N 33°44' W 118°13'0 0.0
2017-Dec-15 14:27N 33°44' W 118°13'0 0.1
2017-Dec-15 13:57N 33°44' W 118°13'0 0.1
2017-Dec-15 13:28N 33°44' W 118°13'0 0.2
2017-Dec-15 12:57N 33°44' W 118°13'0 0.0
2017-Dec-15 08:57N 33°44' W 118°13'0 0.0
2017-Dec-15 08:09N 33°44' W 118°13'0 0.2
2017-Dec-15 07:57N 33°44' W 118°13'0 0.0
2017-Dec-15 06:51N 33°44' W 118°13'0 0.0
2017-Dec-15 06:27N 33°44' W 118°13'0 0.1
2017-Dec-15 05:45N 33°44' W 118°13'0 0.2
2017-Dec-15 05:27N 33°44' W 118°13'0 0.1
2017-Dec-15 04:57N 33°44' W 118°13'0 0.1
2017-Dec-15 04:30N 33°44' W 118°13'0 0.1
2017-Dec-15 03:45N 33°44' W 118°13'0 0.1
2017-Dec-15 02:15N 33°44' W 118°13'0 0.2
2017-Dec-15 01:00N 33°44' W 118°13'1 0.0
2017-Dec-13 07:51N 33°45' W 118°13'0 0.7
2017-Dec-13 07:29N 33°45' W 118°13'1 3.0
2017-Dec-13 07:01N 33°44' W 118°12'3 5.1
2017-Dec-13 06:30N 33°42' W 118°11'4 8.1
2017-Dec-13 06:00N 33°37' W 118°11'510.4
2017-Dec-13 05:30N 33°36' W 118°17'611.3
2017-Dec-13 05:00N 33°36' W 118°24'611.8
2017-Dec-13 04:30N 33°36' W 118°31'611.9
2017-Dec-13 04:00N 33°36' W 118°38'612.0
2017-Dec-13 03:30N 33°37' W 118°46'611.9
2017-Dec-13 03:00N 33°37' W 118°53'611.8
2017-Dec-13 02:30N 33°38' W 118°60'612.0
2017-Dec-13 02:00N 33°38' W 119°07'715.1
2017-Dec-13 01:30N 33°38' W 119°16'714.9
2017-Dec-13 01:00N 33°38' W 119°25'815.3
2017-Dec-13 00:30N 33°38' W 119°34'815.2
2017-Dec-12 23:59N 33°37' W 119°43'715.2
2017-Dec-12 23:30N 33°37' W 119°52'814.9
2017-Dec-12 23:00N 33°36' W 120°01'815.0
2017-Dec-12 22:30N 33°36' W 120°10'510.2
2017-Dec-12 21:59N 33°36' W 120°17'5 8.0
2017-Dec-12 21:25N 33°41' W 120°18'511.0
2017-Dec-12 20:59N 33°46' W 120°18'612.2
2017-Dec-12 20:30N 33°48' W 120°24'714.3
2017-Dec-12 20:00N 33°51' W 120°32'714.5
2017-Dec-12 19:30N 33°55' W 120°40'714.5
2017-Dec-12 19:00N 33°58' W 120°48'714.4
2017-Dec-12 18:30N 34°01' W 120°55'714.5
2017-Dec-12 18:00N 34°04' W 121°04'52589.4
2017-Dec-12 18:00N 34°00' W 121°00'1224.0 360 / 101023.510.8 16.110.916.7
2017-Dec-12 17:30N 34°07' W 121°11'714.3
2017-Dec-12 17:00N 34°10' W 121°19'714.2
2017-Dec-12 16:30N 34°13' W 121°27'714.2
2017-Dec-12 16:00N 34°18' W 121°33'714.0
2017-Dec-12 15:30N 34°23' W 121°39'714.1
2017-Dec-12 15:00N 34°28' W 121°45'714.3
2017-Dec-12 14:30N 34°33' W 121°51'714.5
2017-Dec-12 14:00N 34°38' W 121°58'4313.5
2017-Dec-12 14:00N 34°42' W 122°00'4 7.4 320 / 111023.910.8 13.912.815.0
2017-Dec-12 13:31N 34°43' W 122°04'814.9
2017-Dec-12 13:00N 34°49' W 122°11'714.9
2017-Dec-12 12:30N 34°54' W 122°17'715.0
2017-Dec-12 12:01N 34°59' W 122°24'815.1
2017-Dec-12 11:31N 35°04' W 122°30'714.9
2017-Dec-12 11:00N 35°09' W 122°37'815.2
2017-Dec-12 10:31N 35°15' W 122°44'815.1
2017-Dec-12 10:00N 35°20' W 122°50'714.8
2017-Dec-12 09:30N 35°25' W 122°57'715.1
2017-Dec-12 09:01N 35°30' W 123°03'815.2
2017-Dec-12 08:30N 35°37' W 123°09'815.2
2017-Dec-12 08:00N 35°43' W 123°14'815.2
2017-Dec-12 07:30N 35°50' W 123°19'815.3
2017-Dec-12 07:00N 35°56' W 123°24'715.1
2017-Dec-12 06:31N 36°02' W 123°29'815.0
2017-Dec-12 06:00N 36°09' W 123°34'463285.9
2017-Dec-12 06:00N 36°06' W 124°30'4287.2 320 / 101026.5 0.0 13.313.316.7
2017-Dec-12 05:30N 36°15' W 123°39'714.9
2017-Dec-12 05:01N 36°21' W 123°44'714.8
2017-Dec-12 04:30N 36°28' W 123°49'714.7
2017-Dec-12 04:00N 36°34' W 123°54'714.7
2017-Dec-12 03:30N 36°40' W 123°59'714.6
2017-Dec-12 03:00N 36°46' W 124°04'714.7
2017-Dec-12 02:30N 36°52' W 124°09'714.7
2017-Dec-12 02:01N 36°58' W 124°13'7431.7
2017-Dec-12 02:00N 36°54' W 124°06'1429.6 320 / 71026.0 0.0 11.111.115.0
2017-Dec-12 01:30N 37°04' W 124°18'714.6
2017-Dec-12 01:00N 37°11' W 124°24'714.6
2017-Dec-12 00:30N 37°17' W 124°28'713.6
2017-Dec-12 00:00N 37°22' W 124°33'612.6
2017-Dec-11 23:30N 37°28' W 124°37'2 4.8
2017-Dec-11 23:00N 37°30' W 124°36'777.5 1025.0 0.1 11.111.115.0
2017-Dec-11 22:54N 37°34' W 124°43'513.5
2017-Dec-11 22:30N 37°39' W 124°47'714.1
2017-Dec-11 22:01N 37°45' W 124°51'714.4
2017-Dec-11 21:31N 37°51' W 124°56'714.2
2017-Dec-11 21:00N 37°57' W 125°01'714.2
2017-Dec-11 20:31N 38°03' W 125°06'714.4
2017-Dec-11 20:01N 38°09' W 125°11'714.8
2017-Dec-11 19:31N 38°15' W 125°16'714.8
2017-Dec-11 19:01N 38°21' W 125°21'714.7
2017-Dec-11 18:31N 38°27' W 125°26'815.2
2017-Dec-11 18:01N 38°34' W 125°32'11675.7
2017-Dec-11 18:00N 38°24' W 125°24'1939.2 140 / 131025.210.8 15.011.915.3
2017-Dec-11 17:31N 38°40' W 125°37'714.9
2017-Dec-11 17:00N 38°46' W 125°42'2423.8
2017-Dec-11 16:00N 39°06' W 126°00'9 6.9 130 / 171023.010.8 13.910.713.9
2017-Dec-11 14:42N 39°14' W 126°05'414.2
2017-Dec-11 14:25N 39°18' W 126°08'717.3
2017-Dec-11 14:00N 39°24' W 126°12'1 6.9 130 / 171021.710.8 13.311.213.9
2017-Dec-11 13:51N 39°24' W 126°13'514.1
2017-Dec-11 13:30N 39°28' W 126°17'714.4
2017-Dec-11 13:00N 39°35' W 126°22'1014.5
2017-Dec-11 12:18N 39°43' W 126°29'814.1
2017-Dec-11 11:42N 39°50' W 126°35'314.1
2017-Dec-11 11:28N 39°53' W 126°37'2 3.2
2017-Dec-11 11:00N 39°54' W 126°36'1921.2 140 / 171021.710.8 12.811.713.9
2017-Dec-11 10:06N 40°09' W 126°51'314.4
2017-Dec-11 09:55N 40°11' W 126°53'914.3
2017-Dec-11 09:17N 40°19' W 126°59'514.1
2017-Dec-11 08:57N 40°23' W 127°03'2313.9
2017-Dec-11 07:18N 40°42' W 127°19'414.3
2017-Dec-11 07:00N 40°46' W 127°22'714.5
2017-Dec-11 06:30N 40°52' W 127°27'714.2
2017-Dec-11 06:00N 40°58' W 127°32'4277.3
2017-Dec-11 06:00N 40°54' W 127°30'1122.8 140 / 121021.210.8 13.313.314.2
2017-Dec-11 05:30N 41°03' W 127°38'714.0
2017-Dec-11 05:00N 41°09' W 127°43'714.4
2017-Dec-11 04:31N 41°15' W 127°49'814.6
2017-Dec-11 03:58N 41°21' W 127°55'1013.7
2017-Dec-11 03:14N 41°30' W 128°02'313.9
2017-Dec-11 02:59N 41°33' W 128°03'814.1
2017-Dec-11 02:24N 41°40' W 128°09'514.3
2017-Dec-11 02:00N 41°45' W 128°13'3713.7
2017-Dec-10 23:21N 42°16' W 128°40'512.9
2017-Dec-10 23:00N 42°12' W 128°36'1634.7 160 / 141020.610.8 15.6 9.014.4
2017-Dec-10 22:32N 42°25' W 128°48'013.5
2017-Dec-10 22:30N 42°25' W 128°48'2213.9
2017-Dec-10 20:54N 42°44' W 129°05'614.1
2017-Dec-10 20:27N 42°50' W 129°10'614.1
2017-Dec-10 20:00N 42°55' W 129°15'1013.7
2017-Dec-10 19:15N 43°04' W 129°22'513.8
2017-Dec-10 18:51N 43°08' W 129°26'514.0
2017-Dec-10 18:30N 43°12' W 129°30'714.1
2017-Dec-10 18:00N 43°18' W 129°35'713.9
2017-Dec-10 17:30N 43°24' W 129°40'713.4
2017-Dec-10 17:00N 43°30' W 129°45'713.7
2017-Dec-10 16:30N 43°35' W 129°50'2213.9
2017-Dec-10 14:56N 43°54' W 130°06'4912.5
2017-Dec-10 11:00N 44°36' W 130°42'7114.2 170 / 251020.8 0.3 13.312.413.9
2017-Dec-10 06:00N 45°36' W 131°36'3913.0 180 / 121021.710.8 12.211.311.5
2017-Dec-10 03:00N 46°06' W 132°12'20 9.9 170 / 151019.510.8 11.710.511.7
2017-Dec-10 01:00N 46°24' W 132°24'2914.6 180 / 141018.810.8 11.7 9.511.7
2017-Dec-09 23:00N 46°48' W 132°48'7214.5 180 / 141015.910.8 11.110.111.7
2017-Dec-09 18:00N 47°48' W 133°48'4816.1 180 / 181011.5 5.4 11.111.111.1
2017-Dec-09 15:00N 48°30' W 134°24'4343.1 180 / 251008.1 5.4 11.110.111.1
2017-Dec-09 14:00N 49°06' W 135°00'0 0.0 170 / 251005.2 5.4 11.710.511.1
2017-Dec-09 11:00N 49°06' W 135°00'6412.9 170 / 351002.6 5.4 11.710.611.1
2017-Dec-09 06:00N 50°00' W 135°54'3611.9 180 / 191006.1 5.4 9.4 8.4 9.4
2017-Dec-09 03:00N 50°30' W 136°24'2828.4 180 / 201003.4 5.4 9.4 9.4 9.4
2017-Dec-09 02:00N 50°54' W 136°48'73 9.1 150 / 241004.3 2.2 9.4 9.4 9.4
2017-Dec-08 18:00N 51°54' W 137°54'   170 / 321006.2 2.2 9.4 9.4 9.4

Dump ship's entire track history